M/V Bugra Tomba — TCEJ — position and weather

sailwx.info

Track history (hours):
 
Tides and Currents Weather Stations Pressure Air Temp Water Temp Dewpoint Dewpoint Depression Visibility Wind Speed Wind Dir Waves Ship Positions

M/V Bugra Tomba

Last reported at 2015-Aug-27 20:15 UTC. Time now 2015-Sep-01 20:21 UTC.
Position N 34°54' E 034°60'.

Length 99 m; draft 3.8 m.

Type: Cargo ship. MMSI: 271000025.

Date/timePositionNaut miles runAvg speedWind from/ knotsBaromVisibWave heightAir tempDewpointWater temp
2015-Aug-27 20:15N 34°54' E 034°60'7 9.5
2015-Aug-27 19:33N 34°47' E 034°59'14 9.4
2015-Aug-27 18:06N 34°34' E 034°56'5 9.4
2015-Aug-27 17:33N 34°29' E 034°55'9 9.2
2015-Aug-27 16:31N 34°19' E 034°53'17 8.7
2015-Aug-27 14:32N 34°02' E 034°50'11 8.8
2015-Aug-27 13:16N 33°51' E 034°49'  
2015-Aug-22 00:19N 33°14' E 033°41'7 8.4
2015-Aug-21 23:32N 33°18' E 033°35'17 8.5
2015-Aug-21 21:31N 33°27' E 033°18'10 8.6
2015-Aug-21 20:24N 33°35' E 033°10'16 8.9
2015-Aug-21 18:33N 33°47' E 032°57'9 9.0
2015-Aug-21 17:33N 33°53' E 032°49'9 9.1
2015-Aug-21 16:34N 33°59' E 032°42'9 9.0
2015-Aug-21 15:33N 34°05' E 032°33'31 9.1
2015-Aug-21 12:10N 34°26' E 032°05'214 8.7
2015-Aug-20 11:33N 36°31' E 028°32'10 9.5
2015-Aug-20 10:29N 36°31' E 028°19'25 8.6
2015-Aug-20 07:33N 36°31' E 027°48'19 8.6
2015-Aug-20 05:23N 36°38' E 027°27'7 7.9
2015-Aug-20 04:33N 36°42' E 027°20'14 6.6
2015-Aug-20 02:25N 36°56' E 027°17'8 8.8
2015-Aug-20 01:33N 37°00' E 027°09'9 8.9
2015-Aug-20 00:33N 37°09' E 027°05'10 9.0
2015-Aug-19 23:27N 37°17' E 026°57'10 9.1
2015-Aug-19 22:20N 37°25' E 026°50'  
Track history (hours):
 
Tides and Currents Weather Stations Pressure Air Temp Water Temp Dewpoint Dewpoint Depression Visibility Wind Speed Wind Dir Waves Ship Positions

M/V Bugra Tomba

Last reported at 2015-Aug-27 20:15 UTC. Time now 2015-Sep-01 20:21 UTC.
Position N 34°54' E 034°60'.

Length 99 m; draft 3.8 m.

Type: Cargo ship. MMSI: 271000025.

Date/timePositionNaut miles runAvg speedWind from/ knotsBaromVisibWave heightAir tempDewpointWater temp
2015-Aug-27 20:15N 34°54' E 034°60'7 9.5
2015-Aug-27 19:33N 34°47' E 034°59'14 9.4
2015-Aug-27 18:06N 34°34' E 034°56'5 9.4
2015-Aug-27 17:33N 34°29' E 034°55'9 9.2
2015-Aug-27 16:31N 34°19' E 034°53'17 8.7
2015-Aug-27 14:32N 34°02' E 034°50'11 8.8
2015-Aug-27 13:16N 33°51' E 034°49'  
2015-Aug-22 00:19N 33°14' E 033°41'7 8.4
2015-Aug-21 23:32N 33°18' E 033°35'17 8.5
2015-Aug-21 21:31N 33°27' E 033°18'10 8.6
2015-Aug-21 20:24N 33°35' E 033°10'16 8.9
2015-Aug-21 18:33N 33°47' E 032°57'9 9.0
2015-Aug-21 17:33N 33°53' E 032°49'9 9.1
2015-Aug-21 16:34N 33°59' E 032°42'9 9.0
2015-Aug-21 15:33N 34°05' E 032°33'31 9.1
2015-Aug-21 12:10N 34°26' E 032°05'214 8.7
2015-Aug-20 11:33N 36°31' E 028°32'10 9.5
2015-Aug-20 10:29N 36°31' E 028°19'25 8.6
2015-Aug-20 07:33N 36°31' E 027°48'19 8.6
2015-Aug-20 05:23N 36°38' E 027°27'7 7.9
2015-Aug-20 04:33N 36°42' E 027°20'14 6.6
2015-Aug-20 02:25N 36°56' E 027°17'8 8.8
2015-Aug-20 01:33N 37°00' E 027°09'9 8.9
2015-Aug-20 00:33N 37°09' E 027°05'10 9.0
2015-Aug-19 23:27N 37°17' E 026°57'10 9.1
2015-Aug-19 22:20N 37°25' E 026°50'  

Dump ship's entire track history